sensor_id;sensor_type;location;lat;lon;timestamp;pressure;altitude;pressure_sealevel;temperature;humidity
32789;BME280;19141;48.980;8.410;2023-05-29T04:22:31;100305.63;;;12.80;85.82
32789;BME280;19141;48.980;8.410;2023-05-29T04:24:57;100306.06;;;12.84;85.44
32789;BME280;19141;48.980;8.410;2023-05-29T04:27:22;100307.34;;;12.88;85.55
32789;BME280;19141;48.980;8.410;2023-05-29T04:29:48;100309.00;;;12.89;85.25
32789;BME280;19141;48.980;8.410;2023-05-29T04:32:13;100314.56;;;12.87;85.92
32789;BME280;19141;48.980;8.410;2023-05-29T04:34:39;100322.03;;;12.92;85.78
32789;BME280;19141;48.980;8.410;2023-05-29T04:37:05;100324.59;;;13.00;86.30
32789;BME280;19141;48.980;8.410;2023-05-29T04:39:31;100325.41;;;13.00;86.61
32789;BME280;19141;48.980;8.410;2023-05-29T04:41:57;100326.25;;;13.01;88.60
32789;BME280;19141;48.980;8.410;2023-05-29T04:44:27;100334.25;;;13.01;88.41
32789;BME280;19141;48.980;8.410;2023-05-29T04:46:54;100333.31;;;13.09;87.59
32789;BME280;19141;48.980;8.410;2023-05-29T04:49:20;100336.81;;;13.09;88.25
32789;BME280;19141;48.980;8.410;2023-05-29T04:51:46;100342.00;;;13.11;88.28
32789;BME280;19141;48.980;8.410;2023-05-29T04:54:12;100335.63;;;13.12;88.15
32789;BME280;19141;48.980;8.410;2023-05-29T04:56:38;100349.00;;;13.26;87.19
32789;BME280;19141;48.980;8.410;2023-05-29T04:59:06;100352.31;;;13.28;88.83
32789;BME280;19141;48.980;8.410;2023-05-29T05:01:32;100349.69;;;13.35;88.45
32789;BME280;19141;48.980;8.410;2023-05-29T05:04:01;100353.47;;;13.41;87.00
32789;BME280;19141;48.980;8.410;2023-05-29T05:06:26;100353.34;;;13.49;86.44
32789;BME280;19141;48.980;8.410;2023-05-29T05:08:53;100358.34;;;13.52;84.74
32789;BME280;19141;48.980;8.410;2023-05-29T05:11:20;100364.59;;;13.59;84.96
32789;BME280;19141;48.980;8.410;2023-05-29T05:13:46;100365.94;;;13.70;83.97
32789;BME280;19141;48.980;8.410;2023-05-29T05:16:11;100364.03;;;13.85;83.00
32789;BME280;19141;48.980;8.410;2023-05-29T05:18:38;100366.31;;;13.88;82.15
32789;BME280;19141;48.980;8.410;2023-05-29T05:21:06;100366.38;;;13.95;81.85
32789;BME280;19141;48.980;8.410;2023-05-29T05:23:33;100364.34;;;13.97;81.86
32789;BME280;19141;48.980;8.410;2023-05-29T05:25:59;100363.59;;;14.03;81.16
32789;BME280;19141;48.980;8.410;2023-05-29T05:28:25;100359.69;;;14.05;81.75
32789;BME280;19141;48.980;8.410;2023-05-29T05:30:51;100366.94;;;14.11;79.75
32789;BME280;19141;48.980;8.410;2023-05-29T05:33:17;100374.41;;;14.16;78.43
32789;BME280;19141;48.980;8.410;2023-05-29T05:35:42;100374.25;;;14.24;77.90
32789;BME280;19141;48.980;8.410;2023-05-29T05:38:08;100387.09;;;14.29;78.15
32789;BME280;19141;48.980;8.410;2023-05-29T05:40:34;100389.31;;;14.25;79.05
32789;BME280;19141;48.980;8.410;2023-05-29T05:43:10;100382.97;;;14.33;78.29
32789;BME280;19141;48.980;8.410;2023-05-29T05:45:54;100383.63;;;14.35;78.18
32789;BME280;19141;48.980;8.410;2023-05-29T05:48:20;100385.41;;;14.49;78.70
32789;BME280;19141;48.980;8.410;2023-05-29T05:50:45;100383.66;;;14.63;77.14
32789;BME280;19141;48.980;8.410;2023-05-29T05:53:11;100390.88;;;14.62;76.75
32789;BME280;19141;48.980;8.410;2023-05-29T05:55:36;100397.28;;;14.68;77.92
32789;BME280;19141;48.980;8.410;2023-05-29T05:58:02;100399.00;;;14.76;77.52
32789;BME280;19141;48.980;8.410;2023-05-29T06:00:28;100400.72;;;14.90;76.80
32789;BME280;19141;48.980;8.410;2023-05-29T06:02:56;100386.72;;;14.95;75.25
32789;BME280;19141;48.980;8.410;2023-05-29T06:05:42;100409.47;;;15.05;75.02
32789;BME280;19141;48.980;8.410;2023-05-29T06:08:07;100407.84;;;15.11;75.66
32789;BME280;19141;48.980;8.410;2023-05-29T06:10:34;100409.31;;;15.13;77.06
32789;BME280;19141;48.980;8.410;2023-05-29T06:13:00;100414.72;;;15.20;75.89
32789;BME280;19141;48.980;8.410;2023-05-29T06:15:34;100415.16;;;15.30;76.61
32789;BME280;19141;48.980;8.410;2023-05-29T06:18:01;100416.00;;;15.31;75.39
32789;BME280;19141;48.980;8.410;2023-05-29T06:20:28;100413.53;;;15.36;73.77
32789;BME280;19141;48.980;8.410;2023-05-29T06:22:55;100416.66;;;15.39;72.88
32789;BME280;19141;48.980;8.410;2023-05-29T06:25:20;100414.81;;;15.46;73.02
32789;BME280;19141;48.980;8.410;2023-05-29T06:27:46;100426.25;;;15.62;74.12
32789;BME280;19141;48.980;8.410;2023-05-29T06:30:12;100416.56;;;15.67;72.53
32789;BME280;19141;48.980;8.410;2023-05-29T06:32:38;100422.56;;;15.76;72.00
32789;BME280;19141;48.980;8.410;2023-05-29T06:35:06;100419.09;;;15.82;70.41
32789;BME280;19141;48.980;8.410;2023-05-29T06:37:32;100414.97;;;15.93;68.91
32789;BME280;19141;48.980;8.410;2023-05-29T06:39:58;100418.72;;;16.12;67.80
32789;BME280;19141;48.980;8.410;2023-05-29T06:42:24;100393.06;;;15.96;65.41
32789;BME280;19141;48.980;8.410;2023-05-29T06:44:56;100419.13;;;16.22;65.46
32789;BME280;19141;48.980;8.410;2023-05-29T06:47:21;100409.22;;;16.22;65.17
32789;BME280;19141;48.980;8.410;2023-05-29T06:49:47;100416.88;;;16.32;63.63
32789;BME280;19141;48.980;8.410;2023-05-29T06:52:12;100415.84;;;16.33;63.46
32789;BME280;19141;48.980;8.410;2023-05-29T06:55:10;100421.22;;;16.53;62.78
32789;BME280;19141;48.980;8.410;2023-05-29T06:57:36;100423.28;;;16.58;60.24
32789;BME280;19141;48.980;8.410;2023-05-29T07:00:01;100419.13;;;16.62;61.20
32789;BME280;19141;48.980;8.410;2023-05-29T07:02:29;100411.50;;;16.78;62.74
32789;BME280;19141;48.980;8.410;2023-05-29T07:04:56;100411.88;;;16.89;62.30
32789;BME280;19141;48.980;8.410;2023-05-29T07:07:22;100419.28;;;17.06;62.81
32789;BME280;19141;48.980;8.410;2023-05-29T07:09:47;100412.03;;;17.07;61.51
32789;BME280;19141;48.980;8.410;2023-05-29T07:12:14;100418.63;;;17.18;61.52
32789;BME280;19141;48.980;8.410;2023-05-29T07:14:39;100426.09;;;17.16;60.30
32789;BME280;19141;48.980;8.410;2023-05-29T07:17:05;100419.63;;;17.30;60.94
32789;BME280;19141;48.980;8.410;2023-05-29T07:19:31;100426.63;;;17.38;59.84
32789;BME280;19141;48.980;8.410;2023-05-29T07:22:01;100428.47;;;17.44;60.88
32789;BME280;19141;48.980;8.410;2023-05-29T07:24:26;100424.47;;;17.59;60.25
32789;BME280;19141;48.980;8.410;2023-05-29T07:26:52;100424.44;;;17.73;59.21
32789;BME280;19141;48.980;8.410;2023-05-29T07:29:18;100426.41;;;17.90;58.16
32789;BME280;19141;48.980;8.410;2023-05-29T07:31:46;100427.00;;;17.93;57.60
32789;BME280;19141;48.980;8.410;2023-05-29T07:34:11;100429.56;;;18.12;56.97
32789;BME280;19141;48.980;8.410;2023-05-29T07:37:04;100427.03;;;18.17;55.94
32789;BME280;19141;48.980;8.410;2023-05-29T07:39:33;100436.09;;;18.30;54.91
32789;BME280;19141;48.980;8.410;2023-05-29T07:42:03;100428.75;;;18.37;54.79
32789;BME280;19141;48.980;8.410;2023-05-29T07:44:29;100424.44;;;18.36;55.43
32789;BME280;19141;48.980;8.410;2023-05-29T07:46:55;100435.97;;;18.43;55.47
32789;BME280;19141;48.980;8.410;2023-05-29T07:49:43;100436.25;;;18.60;56.00
32789;BME280;19141;48.980;8.410;2023-05-29T07:52:09;100435.22;;;18.61;54.73
32789;BME280;19141;48.980;8.410;2023-05-29T07:54:34;100435.38;;;18.66;54.67
32789;BME280;19141;48.980;8.410;2023-05-29T07:57:01;100442.03;;;18.63;53.36
32789;BME280;19141;48.980;8.410;2023-05-29T07:59:41;100439.69;;;18.74;53.39
32789;BME280;19141;48.980;8.410;2023-05-29T08:02:08;100437.88;;;18.67;53.88
32789;BME280;19141;48.980;8.410;2023-05-29T08:04:54;100438.09;;;18.91;53.20
32789;BME280;19141;48.980;8.410;2023-05-29T08:07:22;100432.53;;;19.04;53.32
32789;BME280;19141;48.980;8.410;2023-05-29T08:09:48;100426.69;;;19.25;52.62
32789;BME280;19141;48.980;8.410;2023-05-29T08:12:14;100428.41;;;19.38;52.36
32789;BME280;19141;48.980;8.410;2023-05-29T08:14:40;100435.00;;;19.42;52.60
32789;BME280;19141;48.980;8.410;2023-05-29T08:17:06;100424.34;;;19.66;52.30
32789;BME280;19141;48.980;8.410;2023-05-29T08:19:31;100433.41;;;19.71;51.42
32789;BME280;19141;48.980;8.410;2023-05-29T08:21:57;100425.56;;;19.82;51.49
32789;BME280;19141;48.980;8.410;2023-05-29T08:24:22;100424.72;;;19.69;51.60
32789;BME280;19141;48.980;8.410;2023-05-29T08:26:48;100435.16;;;19.96;51.85
32789;BME280;19141;48.980;8.410;2023-05-29T08:29:13;100436.94;;;20.14;51.53
32789;BME280;19141;48.980;8.410;2023-05-29T08:31:39;100428.63;;;20.27;51.27
32789;BME280;19141;48.980;8.410;2023-05-29T08:34:05;100433.63;;;20.42;51.92
32789;BME280;19141;48.980;8.410;2023-05-29T08:36:32;100431.53;;;20.55;50.78
32789;BME280;19141;48.980;8.410;2023-05-29T08:38:57;100428.59;;;20.57;50.58
32789;BME280;19141;48.980;8.410;2023-05-29T08:41:36;100420.22;;;20.58;50.77
32789;BME280;19141;48.980;8.410;2023-05-29T08:44:05;100414.94;;;20.64;50.58
32789;BME280;19141;48.980;8.410;2023-05-29T08:46:33;100414.00;;;20.58;50.61
32789;BME280;19141;48.980;8.410;2023-05-29T08:49:01;100424.72;;;20.65;49.67
32789;BME280;19141;48.980;8.410;2023-05-29T08:51:31;100426.03;;;20.74;49.64
32789;BME280;19141;48.980;8.410;2023-05-29T08:53:57;100422.22;;;20.98;48.92
32789;BME280;19141;48.980;8.410;2023-05-29T08:56:23;100427.00;;;21.31;49.70
32789;BME280;19141;48.980;8.410;2023-05-29T08:58:48;100426.72;;;21.56;48.73
32789;BME280;19141;48.980;8.410;2023-05-29T09:01:16;100431.44;;;21.49;47.91
32789;BME280;19141;48.980;8.410;2023-05-29T09:03:42;100429.59;;;21.78;47.64
32789;BME280;19141;48.980;8.410;2023-05-29T09:06:07;100423.66;;;21.81;47.43
32789;BME280;19141;48.980;8.410;2023-05-29T09:08:34;100421.94;;;21.75;46.54
32789;BME280;19141;48.980;8.410;2023-05-29T09:11:00;100422.28;;;21.95;46.21
32789;BME280;19141;48.980;8.410;2023-05-29T09:13:25;100423.31;;;22.06;46.15
32789;BME280;19141;48.980;8.410;2023-05-29T09:15:58;100428.53;;;22.41;44.91
32789;BME280;19141;48.980;8.410;2023-05-29T09:18:23;100424.50;;;22.27;44.28
32789;BME280;19141;48.980;8.410;2023-05-29T09:20:49;100426.00;;;22.52;44.78
32789;BME280;19141;48.980;8.410;2023-05-29T09:23:14;100428.09;;;22.83;44.42
32789;BME280;19141;48.980;8.410;2023-05-29T09:25:41;100431.63;;;23.00;44.19
32789;BME280;19141;48.980;8.410;2023-05-29T09:28:08;100433.59;;;23.27;44.08
32789;BME280;19141;48.980;8.410;2023-05-29T09:30:37;100425.78;;;23.09;42.97
32789;BME280;19141;48.980;8.410;2023-05-29T09:33:04;100427.69;;;23.30;43.14
32789;BME280;19141;48.980;8.410;2023-05-29T09:35:43;100429.00;;;23.71;42.44
32789;BME280;19141;48.980;8.410;2023-05-29T09:38:16;100428.66;;;23.90;41.51
32789;BME280;19141;48.980;8.410;2023-05-29T09:40:43;100423.06;;;24.01;41.96
32789;BME280;19141;48.980;8.410;2023-05-29T09:43:16;100428.91;;;23.88;40.88
32789;BME280;19141;48.980;8.410;2023-05-29T09:45:51;100434.19;;;24.32;40.96
32789;BME280;19141;48.980;8.410;2023-05-29T09:48:18;100439.44;;;24.33;40.53
32789;BME280;19141;48.980;8.410;2023-05-29T09:50:44;100429.81;;;24.26;40.17
32789;BME280;19141;48.980;8.410;2023-05-29T09:53:23;100424.88;;;24.23;40.89
32789;BME280;19141;48.980;8.410;2023-05-29T09:55:51;100432.38;;;24.75;40.61
32789;BME280;19141;48.980;8.410;2023-05-29T09:58:23;100422.72;;;24.99;40.61
32789;BME280;19141;48.980;8.410;2023-05-29T10:00:50;100428.03;;;25.21;44.91
32789;BME280;19141;48.980;8.410;2023-05-29T10:03:17;100423.63;;;25.15;39.03
32789;BME280;19141;48.980;8.410;2023-05-29T10:05:48;100413.63;;;25.26;38.72
32789;BME280;19141;48.980;8.410;2023-05-29T10:08:15;100407.25;;;25.78;38.36
32789;BME280;19141;48.980;8.410;2023-05-29T10:10:46;100401.16;;;25.55;37.64
32789;BME280;19141;48.980;8.410;2023-05-29T10:13:14;100406.97;;;25.74;37.65
32789;BME280;19141;48.980;8.410;2023-05-29T10:15:49;100404.56;;;26.03;40.20
32789;BME280;19141;48.980;8.410;2023-05-29T10:18:31;100394.94;;;25.65;37.23
32789;BME280;19141;48.980;8.410;2023-05-29T10:21:00;100392.56;;;26.04;37.86
32789;BME280;19141;48.980;8.410;2023-05-29T10:23:28;100393.88;;;25.81;37.63
32789;BME280;19141;48.980;8.410;2023-05-29T10:25:59;100393.66;;;26.54;37.30
32789;BME280;19141;48.980;8.410;2023-05-29T10:28:30;100395.28;;;26.19;37.91
32789;BME280;19141;48.980;8.410;2023-05-29T10:31:05;100384.38;;;26.24;35.41
32789;BME280;19141;48.980;8.410;2023-05-29T10:36:13;100386.41;;;27.04;36.58
32789;BME280;19141;48.980;8.410;2023-05-29T10:38:44;100388.34;;;27.14;35.16
32789;BME280;19141;48.980;8.410;2023-05-29T10:46:20;100387.81;;;28.05;36.53
32789;BME280;19141;48.980;8.410;2023-05-29T10:48:49;100387.72;;;27.81;32.85
32789;BME280;19141;48.980;8.410;2023-05-29T10:51:26;100394.38;;;28.44;32.47
32789;BME280;19141;48.980;8.410;2023-05-29T10:53:51;100394.38;;;28.44;33.11
32789;BME280;19141;48.980;8.410;2023-05-29T10:56:28;100395.03;;;28.59;32.78
32789;BME280;19141;48.980;8.410;2023-05-29T10:58:55;100382.31;;;28.69;32.20
32789;BME280;19141;48.980;8.410;2023-05-29T11:01:23;100383.38;;;29.02;32.37
32789;BME280;19141;48.980;8.410;2023-05-29T11:03:50;100380.63;;;29.02;31.28
32789;BME280;19141;48.980;8.410;2023-05-29T11:06:21;100372.31;;;29.07;31.38
32789;BME280;19141;48.980;8.410;2023-05-29T11:08:56;100382.75;;;29.29;31.17
32789;BME280;19141;48.980;8.410;2023-05-29T11:13:54;100367.13;;;29.48;29.89
32789;BME280;19141;48.980;8.410;2023-05-29T11:18:48;100382.31;;;29.40;31.23
32789;BME280;19141;48.980;8.410;2023-05-29T11:24:14;100366.25;;;29.53;28.43
32789;BME280;19141;48.980;8.410;2023-05-29T11:26:45;100368.97;;;28.62;29.80
32789;BME280;19141;48.980;8.410;2023-05-29T11:29:11;100377.34;;;29.00;29.85
32789;BME280;19141;48.980;8.410;2023-05-29T11:31:38;100382.03;;;29.42;29.13
32789;BME280;19141;48.980;8.410;2023-05-29T11:34:04;100376.34;;;29.57;28.22
32789;BME280;19141;48.980;8.410;2023-05-29T11:36:31;100382.94;;;29.56;28.25
32789;BME280;19141;48.980;8.410;2023-05-29T11:38:58;100387.84;;;29.16;28.89
32789;BME280;19141;48.980;8.410;2023-05-29T11:41:24;100370.41;;;29.69;28.24
32789;BME280;19141;48.980;8.410;2023-05-29T11:44:01;100375.84;;;29.31;28.65
32789;BME280;19141;48.980;8.410;2023-05-29T11:46:27;100378.75;;;29.96;28.33
32789;BME280;19141;48.980;8.410;2023-05-29T11:48:56;100372.09;;;29.65;27.36
32789;BME280;19141;48.980;8.410;2023-05-29T11:51:22;100367.75;;;29.64;28.83
32789;BME280;19141;48.980;8.410;2023-05-29T11:53:48;100369.03;;;29.29;28.34
32789;BME280;19141;48.980;8.410;2023-05-29T11:56:14;100361.31;;;29.55;28.97
32789;BME280;19141;48.980;8.410;2023-05-29T11:58:40;100360.63;;;30.47;30.70
32789;BME280;19141;48.980;8.410;2023-05-29T12:01:08;100370.75;;;31.06;27.26
32789;BME280;19141;48.980;8.410;2023-05-29T12:03:41;100359.16;;;30.82;26.03
32789;BME280;19141;48.980;8.410;2023-05-29T12:06:09;100372.56;;;31.75;24.74
32789;BME280;19141;48.980;8.410;2023-05-29T12:08:36;100370.41;;;31.85;24.43
32789;BME280;19141;48.980;8.410;2023-05-29T12:11:01;100369.28;;;31.23;25.26
32789;BME280;19141;48.980;8.410;2023-05-29T12:13:27;100366.88;;;31.71;24.44
32789;BME280;19141;48.980;8.410;2023-05-29T12:15:56;100350.59;;;30.23;25.30
32789;BME280;19141;48.980;8.410;2023-05-29T12:18:23;100361.69;;;30.65;25.35
32789;BME280;19141;48.980;8.410;2023-05-29T12:20:48;100366.16;;;31.29;25.71
32789;BME280;19141;48.980;8.410;2023-05-29T12:23:14;100362.41;;;30.84;26.71
32789;BME280;19141;48.980;8.410;2023-05-29T12:25:39;100362.28;;;30.62;25.53
32789;BME280;19141;48.980;8.410;2023-05-29T12:28:05;100352.94;;;30.90;26.29
32789;BME280;19141;48.980;8.410;2023-05-29T12:30:36;100358.56;;;31.63;24.01
32789;BME280;19141;48.980;8.410;2023-05-29T12:33:01;100369.13;;;31.33;25.95
32789;BME280;19141;48.980;8.410;2023-05-29T12:35:29;100353.00;;;31.76;24.74
32789;BME280;19141;48.980;8.410;2023-05-29T12:37:58;100354.53;;;31.69;23.88
32789;BME280;19141;48.980;8.410;2023-05-29T12:40:25;100353.66;;;30.82;25.97
32789;BME280;19141;48.980;8.410;2023-05-29T12:43:05;100357.59;;;31.45;25.94
32789;BME280;19141;48.980;8.410;2023-05-29T12:45:33;100356.94;;;32.06;24.52
32789;BME280;19141;48.980;8.410;2023-05-29T12:48:00;100358.00;;;32.42;24.17
32789;BME280;19141;48.980;8.410;2023-05-29T12:50:39;100364.72;;;32.58;23.71
32789;BME280;19141;48.980;8.410;2023-05-29T12:55:34;100357.84;;;32.47;23.78
32789;BME280;19141;48.980;8.410;2023-05-29T12:58:03;100350.47;;;32.02;22.29
32789;BME280;19141;48.980;8.410;2023-05-29T13:00:28;100350.28;;;32.30;23.34
32789;BME280;19141;48.980;8.410;2023-05-29T13:02:55;100357.03;;;32.77;21.61
32789;BME280;19141;48.980;8.410;2023-05-29T13:05:21;100360.31;;;32.26;22.93
32789;BME280;19141;48.980;8.410;2023-05-29T13:07:51;100350.22;;;31.54;22.14
32789;BME280;19141;48.980;8.410;2023-05-29T13:10:17;100355.84;;;31.85;23.22
32789;BME280;19141;48.980;8.410;2023-05-29T13:12:43;100344.97;;;29.63;23.96
32789;BME280;19141;48.980;8.410;2023-05-29T13:15:11;100343.28;;;30.79;23.76
32789;BME280;19141;48.980;8.410;2023-05-29T13:17:37;100346.84;;;30.00;24.17
32789;BME280;19141;48.980;8.410;2023-05-29T13:20:02;100347.84;;;30.23;24.65
32789;BME280;19141;48.980;8.410;2023-05-29T13:22:31;100335.44;;;29.18;26.13
32789;BME280;19141;48.980;8.410;2023-05-29T13:24:58;100335.69;;;29.22;26.79
32789;BME280;19141;48.980;8.410;2023-05-29T13:27:25;100342.69;;;29.09;26.30
32789;BME280;19141;48.980;8.410;2023-05-29T13:29:51;100336.53;;;28.98;26.55
32789;BME280;19141;48.980;8.410;2023-05-29T13:32:16;100345.53;;;28.51;27.30
32789;BME280;19141;48.980;8.410;2023-05-29T13:34:42;100342.78;;;28.75;26.02
32789;BME280;19141;48.980;8.410;2023-05-29T13:37:07;100328.09;;;28.42;26.61
32789;BME280;19141;48.980;8.410;2023-05-29T13:39:33;100336.44;;;28.26;27.81
32789;BME280;19141;48.980;8.410;2023-05-29T13:41:58;100335.06;;;27.95;28.21
32789;BME280;19141;48.980;8.410;2023-05-29T13:44:24;100331.00;;;27.92;26.80
32789;BME280;19141;48.980;8.410;2023-05-29T13:46:49;100330.38;;;27.61;27.60
32789;BME280;19141;48.980;8.410;2023-05-29T13:49:16;100325.69;;;27.72;27.84
32789;BME280;19141;48.980;8.410;2023-05-29T13:51:41;100337.44;;;27.72;28.12
32789;BME280;19141;48.980;8.410;2023-05-29T13:54:06;100332.78;;;27.73;27.81
32789;BME280;19141;48.980;8.410;2023-05-29T13:56:32;100328.88;;;27.40;27.73
32789;BME280;19141;48.980;8.410;2023-05-29T13:58:57;100331.75;;;27.14;28.77
32789;BME280;19141;48.980;8.410;2023-05-29T14:01:29;100317.34;;;26.83;29.56
32789;BME280;19141;48.980;8.410;2023-05-29T14:03:54;100306.78;;;26.61;29.77
32789;BME280;19141;48.980;8.410;2023-05-29T14:06:19;100312.91;;;26.97;29.95
32789;BME280;19141;48.980;8.410;2023-05-29T14:08:45;100301.69;;;26.99;30.30
32789;BME280;19141;48.980;8.410;2023-05-29T14:11:10;100318.66;;;26.96;29.24
32789;BME280;19141;48.980;8.410;2023-05-29T14:13:35;100305.53;;;26.98;28.87
32789;BME280;19141;48.980;8.410;2023-05-29T14:16:01;100305.53;;;27.08;28.49
32789;BME280;19141;48.980;8.410;2023-05-29T14:18:26;100311.88;;;26.88;28.75
32789;BME280;19141;48.980;8.410;2023-05-29T14:20:51;100312.78;;;26.58;29.09
32789;BME280;19141;48.980;8.410;2023-05-29T14:23:17;100306.19;;;26.74;29.05
32789;BME280;19141;48.980;8.410;2023-05-29T14:25:42;100314.41;;;26.69;29.91
32789;BME280;19141;48.980;8.410;2023-05-29T14:28:08;100307.47;;;26.92;29.71
32789;BME280;19141;48.980;8.410;2023-05-29T14:30:34;100310.56;;;26.70;28.77
32789;BME280;19141;48.980;8.410;2023-05-29T14:32:59;100308.41;;;26.62;28.76
32789;BME280;19141;48.980;8.410;2023-05-29T14:35:25;100309.78;;;26.60;28.90
32789;BME280;19141;48.980;8.410;2023-05-29T14:37:50;100307.63;;;26.51;28.42
32789;BME280;19141;48.980;8.410;2023-05-29T14:40:16;100304.28;;;26.70;28.89
32789;BME280;19141;48.980;8.410;2023-05-29T14:42:41;100305.09;;;26.75;29.02
32789;BME280;19141;48.980;8.410;2023-05-29T14:45:07;100297.75;;;26.66;29.24
32789;BME280;19141;48.980;8.410;2023-05-29T14:47:33;100303.72;;;26.73;29.02
32789;BME280;19141;48.980;8.410;2023-05-29T14:49:58;100298.59;;;26.56;29.51
32789;BME280;19141;48.980;8.410;2023-05-29T14:52:24;100290.72;;;26.44;29.02
32789;BME280;19141;48.980;8.410;2023-05-29T14:54:49;100300.53;;;26.56;29.78
32789;BME280;19141;48.980;8.410;2023-05-29T14:57:14;100297.28;;;26.43;30.54
32789;BME280;19141;48.980;8.410;2023-05-29T14:59:40;100297.53;;;26.32;30.25
32789;BME280;19141;48.980;8.410;2023-05-29T15:02:05;100295.94;;;26.41;31.20
32789;BME280;19141;48.980;8.410;2023-05-29T15:04:31;100289.84;;;26.64;29.50
32789;BME280;19141;48.980;8.410;2023-05-29T15:06:56;100285.00;;;26.41;30.77
32789;BME280;19141;48.980;8.410;2023-05-29T15:09:22;100287.69;;;26.46;30.96
32789;BME280;19141;48.980;8.410;2023-05-29T15:11:47;100286.59;;;26.57;30.13
32789;BME280;19141;48.980;8.410;2023-05-29T15:14:13;100288.78;;;26.55;30.17
32789;BME280;19141;48.980;8.410;2023-05-29T15:16:39;100282.75;;;26.53;29.05
32789;BME280;19141;48.980;8.410;2023-05-29T15:19:05;100286.09;;;26.24;29.91
32789;BME280;19141;48.980;8.410;2023-05-29T15:21:31;100280.63;;;26.35;29.88
32789;BME280;19141;48.980;8.410;2023-05-29T15:23:56;100283.34;;;26.19;30.07
32789;BME280;19141;48.980;8.410;2023-05-29T15:26:22;100288.81;;;26.19;33.09
32789;BME280;19141;48.980;8.410;2023-05-29T15:28:47;100277.03;;;26.34;30.46
32789;BME280;19141;48.980;8.410;2023-05-29T15:31:13;100285.00;;;26.41;30.73
32789;BME280;19141;48.980;8.410;2023-05-29T15:33:39;100286.06;;;26.45;30.00
32789;BME280;19141;48.980;8.410;2023-05-29T15:36:05;100291.78;;;26.38;29.29
32789;BME280;19141;48.980;8.410;2023-05-29T15:38:31;100285.00;;;26.41;29.62
32789;BME280;19141;48.980;8.410;2023-05-29T15:40:58;100280.63;;;26.24;30.66
32789;BME280;19141;48.980;8.410;2023-05-29T15:43:23;100281.44;;;26.25;30.91
32789;BME280;19141;48.980;8.410;2023-05-29T15:45:50;100282.28;;;26.41;30.42
32789;BME280;19141;48.980;8.410;2023-05-29T15:48:16;100271.63;;;26.19;30.52
32789;BME280;19141;48.980;8.410;2023-05-29T15:50:41;100268.63;;;26.20;31.83
32789;BME280;19141;48.980;8.410;2023-05-29T15:53:07;100259.66;;;26.15;31.29
32789;BME280;19141;48.980;8.410;2023-05-29T15:55:32;100272.47;;;26.09;31.83
32789;BME280;19141;48.980;8.410;2023-05-29T15:57:58;100270.56;;;26.05;30.77
32789;BME280;19141;48.980;8.410;2023-05-29T16:00:24;100266.75;;;25.75;35.70
32789;BME280;19141;48.980;8.410;2023-05-29T16:02:50;100264.84;;;25.96;32.44
32789;BME280;19141;48.980;8.410;2023-05-29T16:05:16;100267.56;;;25.86;30.71
32789;BME280;19141;48.980;8.410;2023-05-29T16:07:42;100273.59;;;25.83;31.94
32789;BME280;19141;48.980;8.410;2023-05-29T16:10:13;100270.03;;;25.77;33.46
32789;BME280;19141;48.980;8.410;2023-05-29T16:12:42;100266.50;;;25.77;30.77
32789;BME280;19141;48.980;8.410;2023-05-29T16:15:08;100264.28;;;25.63;31.08
32789;BME280;19141;48.980;8.410;2023-05-29T16:17:33;100258.53;;;25.55;32.54
32789;BME280;19141;48.980;8.410;2023-05-29T16:19:58;100258.53;;;25.60;31.59
32789;BME280;19141;48.980;8.410;2023-05-29T16:22:25;100265.38;;;25.57;34.12
32789;BME280;19141;48.980;8.410;2023-05-29T16:24:51;100267.81;;;25.59;32.73
32789;BME280;19141;48.980;8.410;2023-05-29T16:27:17;100260.19;;;25.51;31.85
32789;BME280;19141;48.980;8.410;2023-05-29T16:29:43;100261.53;;;25.53;30.96
32789;BME280;19141;48.980;8.410;2023-05-29T16:32:09;100270.25;;;25.55;31.32
32789;BME280;19141;48.980;8.410;2023-05-29T16:34:35;100262.09;;;25.45;31.10
32789;BME280;19141;48.980;8.410;2023-05-29T16:37:00;100265.91;;;25.54;30.60
32789;BME280;19141;48.980;8.410;2023-05-29T16:39:26;100266.19;;;25.53;29.85
32789;BME280;19141;48.980;8.410;2023-05-29T16:41:56;100261.25;;;25.34;31.33
32789;BME280;19141;48.980;8.410;2023-05-29T16:44:22;100264.53;;;25.47;30.88
32789;BME280;19141;48.980;8.410;2023-05-29T16:46:48;100253.91;;;25.40;31.29
32789;BME280;19141;48.980;8.410;2023-05-29T16:49:13;100259.31;;;25.30;30.52
32789;BME280;19141;48.980;8.410;2023-05-29T16:51:39;100257.97;;;25.32;30.36
32789;BME280;19141;48.980;8.410;2023-05-29T16:54:04;100262.88;;;25.25;30.43
32789;BME280;19141;48.980;8.410;2023-05-29T16:56:29;100256.06;;;25.28;30.59
32789;BME280;19141;48.980;8.410;2023-05-29T16:58:55;100259.59;;;25.23;30.62
32789;BME280;19141;48.980;8.410;2023-05-29T17:01:20;100251.16;;;25.30;30.81
32789;BME280;19141;48.980;8.410;2023-05-29T17:03:46;100260.97;;;25.31;32.96
32789;BME280;19141;48.980;8.410;2023-05-29T17:06:11;100260.69;;;25.27;31.53
32789;BME280;19141;48.980;8.410;2023-05-29T17:08:37;100262.59;;;25.22;31.99
32789;BME280;19141;48.980;8.410;2023-05-29T17:11:02;100261.78;;;25.21;31.48
32789;BME280;19141;48.980;8.410;2023-05-29T17:13:28;100267.78;;;25.18;31.63
32789;BME280;19141;48.980;8.410;2023-05-29T17:15:54;100260.94;;;25.21;30.62
32789;BME280;19141;48.980;8.410;2023-05-29T17:18:19;100263.13;;;25.19;31.53
32789;BME280;19141;48.980;8.410;2023-05-29T17:20:45;100268.03;;;25.11;31.67
32789;BME280;19141;48.980;8.410;2023-05-29T17:23:11;100269.66;;;25.12;31.97
32789;BME280;19141;48.980;8.410;2023-05-29T17:25:38;100275.38;;;25.06;31.69
32789;BME280;19141;48.980;8.410;2023-05-29T17:28:04;100277.81;;;25.07;31.50
32789;BME280;19141;48.980;8.410;2023-05-29T17:30:31;100273.75;;;25.05;32.18